Adolph, MN

5:19 AM CDT on April 24, 2017 (GMT -0500)
Windy Hill | | Change Station

Elev 1303 ft 46.78 °N, 92.25 °W | Updated 37 seconds ago

Mostly Cloudy
Mostly Cloudy
30.9 °F
Feels Like 21 °F
N
11.9
Wind Variable Wind from East

Today
High -- | Low -- °F
--% Chance of Precip.
Yesterday
High -- | Low -- °F
Precip. -- in
Pressure 29.96 in
Visibility 10.0 miles
Clouds Few 900 ft
Few 2000 ft
Windchill 21 °F
Dew Point 28 °F
Humidity 88%
Rainfall 0.00 in
Snow Depth Not available.
6:05 AM 8:10 PM
Waning Crescent, 6% visible
METAR KDLH 240955Z 10025G34KT 10SM FEW009 FEW020 M01/M03 A2991 RMK AO2 PK WND 10034/0909 SLP145 T10061028
Pressure 29.96 in
Visibility 10.0 miles
Clouds Few 900 ft
Few 2000 ft
Windchill 21 °F
Dew Point 28 °F
Humidity 88%
Rainfall 0.00 in
Snow Depth Not available.
6:05 AM 8:10 PM
Waning Crescent, 6% visible
METAR KDLH 240955Z 10025G34KT 10SM FEW009 FEW020 M01/M03 A2991 RMK AO2 PK WND 10034/0909 SLP145 T10061028

Get Severe Weather Alerts

Thanks for signing up!

Be on the lookout for a verification email in your inbox.

You'll start receiving the daily forecast at 8 AM.

×

10-Day Weather Forecast

Almanac

Astronomy

Apr. 24, 2017 Rise Set
Actual Time
Civil Twilight
Nautical Twilight
Astronomical Twilight
Moon
Length of Visible Light
Length of Day
Tomorrow will be .
, % of the Moon is Illuminated

Today's Extremes

State Highs State Lows

Community

WunderPhotos

WunderBlog® & News

Nearby

Air Quality

  Air Quality AQ Index Pollutant
Not available.

Snow Depth

Station Depth Elevation

Earthquake Activity

City Distance Mag. Time & Date
Minimum magnitude displayed is 2.5.

Coastal Water Temperatures

Place Temperature

Stations

Nearby Weather Stations

Station Location Temp. Windchill Dew Point Humidity Wind Precip. Elev Updated Type
                   

Watches & Warnings

There are currently no watches in effect.